Duarte, CA (91009)

6:09 PM PST on January 29, 2015 (GMT -0800)
NE Duarte, Near Rancho Duarte Golf Course | Change Station
CLOSE
Current Station
Personal Weather Station
Location: Duarte, CA
Elevation: 587 ft
Nearby Weather Stations

Elev 587 ft 34.14 °N, 117.95 °W | Updated 6 minutes ago

Mostly Cloudy
Mostly Cloudy
72.3 °F
Feels Like 77 °F
N
0.0
Wind Variable Wind from North
Gusts 0.0 mph

Today
High -- | Low -- °F
--% Chance of Precip.
Yesterday
High -- | Low -- °F
Precip. -- in
6:51 AM 5:19 PM
Waxing Gibbous, 79% visible
Pressure 30.00 in
Visibility 10.0 miles
Clouds Clear
Heat Index 77 °F
Dew Point 41 °F
Humidity 32%
Rainfall -999.00 in
Snow Depth Not available.
UV 0 out of 12
Pollen 8.00 out of 12
Air Quality Not available.
Flu Activity Not available.
METAR KCQT 300147Z AUTO 00000KT 10SM CLR 19/09 A3000 RMK AO2 SLP157 T01890094 $

More Conditions Fewer Conditions

Pressure 30.00 in
Visibility 10.0 miles
Clouds Clear
Heat Index 77 °F
Dew Point 41 °F
Humidity 32%
Rainfall -999.00 in
Snow Depth Not available.
UV 0 out of 12
Pollen 8.00 out of 12
Air Quality Not available.
Flu Activity Not available.
METAR KCQT 300147Z AUTO 00000KT 10SM CLR 19/09 A3000 RMK AO2 SLP157 T01890094 $

More Conditions Fewer Conditions

10-Day Weather Forecast

Almanac

Astronomy

Jan. 29, 2015 Rise Set
Actual Time
Civil Twilight
Nautical Twilight
Astronomical Twilight
Moon
Length of Visible Light
Length of Day
Tomorrow will be .
, % of the Moon is Illuminated

Today's Extremes

State Highs State Lows

Community

WunderPhotos

Upload Photos

1,791,688 photos uploaded!

WunderBlogs® & News

Nearby

Air Quality

  Air Quality AQ Index Pollutant
Not available.

Snow Depth

Station Depth Elevation

Earthquake Activity

City Distance Mag. Time & Date
Minimum magnitude displayed is 2.5.

Coastal Water Temperatures

Place Temperature

Nearby Weather Stations